Time;durP1;ratioP1;P1;durP2;ratioP2;P2;SDS_P1;SDS_P2;PMS_P1;PMS_P2;Temp;Humidity;BMP_temperature;BMP_pressure;BME280_temperature;BME280_humidity;BME280_pressure;Samples;Min_cycle;Max_cycle;Signal;HPM_P1;HPM_P2
2023/04/29 00:00:01;;;;;;;8.77;7.87;;;10.80;99.90;;;;;;5087469;28;20591;-88
2023/04/29 00:02:28;;;;;;;12.90;8.80;;;11.90;99.90;;;;;;5083831;28;20516;-87
2023/04/29 00:04:55;;;;;;;9.90;8.57;;;12.10;1.00;;;;;;5085086;28;20446;-87
2023/04/29 00:07:22;;;;;;;9.67;8.47;;;11.60;1.00;;;;;;5094096;28;20441;-85
2023/04/29 00:09:50;;;;;;;9.47;8.67;;;11.80;99.90;;;;;;5097851;28;20446;-87
2023/04/29 00:12:17;;;;;;;10.63;8.13;;;11.80;99.90;;;;;;5097748;28;20456;-84
2023/04/29 00:14:44;;;;;;;9.20;7.57;;;12.70;9.60;;;;;;5097775;28;20441;-84
2023/04/29 00:17:12;;;;;;;9.30;8.50;;;;;;;;;;5097719;28;20425;-84
2023/04/29 00:19:39;;;;;;;9.23;8.33;;;11.90;1.00;;;;;;5098948;28;20433;-86
2023/04/29 00:22:06;;;;;;;8.60;7.80;;;12.10;99.90;;;;;;5098999;28;20429;-85
2023/04/29 00:24:33;;;;;;;9.80;8.40;;;12.10;99.90;;;;;;5098841;28;20460;-84
2023/04/29 00:27:01;;;;;;;15.43;8.87;;;11.70;99.90;;;;;;5098694;28;20418;-85
2023/04/29 00:29:31;;;;;;;10.23;8.60;;;11.70;30.10;;;;;;5098565;28;20475;-86
2023/04/29 00:31:58;;;;;;;10.73;7.60;;;11.70;1.00;;;;;;5093865;28;20441;-85
2023/04/29 00:34:25;;;;;;;11.40;8.70;;;11.70;1.00;;;;;;5083772;28;20495;-85
2023/04/29 00:36:52;;;;;;;10.33;8.40;;;11.70;1.00;;;;;;5088006;28;20508;-86
2023/04/29 00:39:19;;;;;;;9.87;8.37;;;11.70;1.00;;;;;;5092114;28;20576;-88
2023/04/29 00:41:46;;;;;;;9.33;8.03;;;11.70;1.00;;;;;;5094135;28;20430;-86
2023/04/29 00:44:15;;;;;;;11.30;8.63;;;12.00;1.00;;;;;;5097474;28;20446;-86
2023/04/29 00:46:42;;;;;;;9.30;8.30;;;11.70;99.90;;;;;;5086952;28;20437;-86
2023/04/29 00:49:09;;;;;;;9.67;8.73;;;11.60;99.90;;;;;;5086942;28;20461;-88
2023/04/29 00:51:37;;;;;;;9.40;8.47;;;11.90;1.00;;;;;;5094006;28;20433;-86
2023/04/29 00:54:05;;;;;;;9.57;8.63;;;11.80;1.00;;;;;;5102201;28;20503;-86
2023/04/29 00:56:33;;;;;;;9.63;8.63;;;11.80;1.00;;;;;;5089911;28;20551;-87
2023/04/29 00:59:03;;;;;;;12.40;9.53;;;11.60;99.90;;;;;;5086389;28;20492;-86
2023/04/29 01:01:32;;;;;;;9.70;8.90;;;11.60;99.90;;;;;;5088145;28;20449;-86
2023/04/29 01:03:59;;;;;;;11.73;9.00;;;11.70;99.90;;;;;;5088492;28;20441;-87
2023/04/29 01:06:34;;;;;;;11.70;8.77;;;11.60;1.00;;;;;;5085784;28;20453;-86
2023/04/29 01:09:17;;;;;;;10.13;8.93;;;11.60;1.00;;;;;;5085721;28;20464;-85
2023/04/29 01:11:55;;;;;;;11.50;10.20;;;11.60;1.00;;;;;;5085138;28;20434;-87
2023/04/29 01:14:24;;;;;;;12.33;8.53;;;11.70;45.80;;;;;;5086067;28;20864;-88
2023/04/29 01:16:56;;;;;;;9.77;8.87;;;11.70;1.00;;;;;;5085314;28;20571;-88
2023/04/29 01:19:40;;;;;;;8.90;8.17;;;11.60;57.20;;;;;;5136153;22;20469;-84
2023/04/29 01:22:07;;;;;;;11.17;10.07;;;11.60;99.90;;;;;;5078173;28;20477;-84
2023/04/29 01:24:35;;;;;;;30.87;9.30;;;11.50;1.00;;;;;;5067733;28;20448;-84
2023/04/29 01:27:11;;;;;;;10.80;9.73;;;11.50;1.00;;;;;;5061906;28;20528;-84
2023/04/29 01:29:45;;;;;;;11.70;10.50;;;11.40;99.90;;;;;;5061063;28;21052;-85
2023/04/29 01:32:18;;;;;;;12.30;10.87;;;11.30;1.00;;;;;;5062260;28;20426;-85
2023/04/29 01:34:49;;;;;;;14.17;10.77;;;11.20;1.00;;;;;;5061579;28;20431;-85
2023/04/29 01:37:22;;;;;;;12.63;11.23;;;11.10;99.90;;;;;;5061853;28;20497;-86
2023/04/29 01:39:57;;;;;;;12.50;11.20;;;11.10;99.90;;;;;;5061351;28;20889;-85
2023/04/29 01:42:29;;;;;;;15.13;11.43;;;11.10;99.90;;;;;;5068890;28;20432;-85
2023/04/29 01:45:00;;;;;;;13.53;11.50;;;10.80;1.00;;;;;;5068567;28;20431;-83
2023/04/29 01:47:29;;;;;;;12.87;11.57;;;11.10;1.00;;;;;;5066253;28;20510;-85
2023/04/29 01:49:56;;;;;;;13.30;11.80;;;11.00;1.00;;;;;;5063793;28;20453;-85
2023/04/29 01:52:23;;;;;;;16.23;13.03;;;11.00;1.00;;;;;;5061282;28;20450;-85
2023/04/29 01:54:51;;;;;;;15.33;12.67;;;10.90;1.00;;;;;;5060509;28;20453;-85
2023/04/29 01:57:18;;;;;;;18.97;14.40;;;11.10;99.90;;;;;;5059646;28;20554;-84
2023/04/29 01:59:45;;;;;;;16.40;13.50;;;10.90;99.90;;;;;;5056493;28;20466;-84
2023/04/29 02:02:14;;;;;;;14.60;13.20;;;10.80;30.80;;;;;;5057255;28;20458;-84
2023/04/29 02:04:41;;;;;;;15.80;13.57;;;10.80;73.40;;;;;;5061202;28;20427;-85
2023/04/29 02:07:08;;;;;;;16.87;14.53;;;10.80;99.90;;;;;;5078819;28;20487;-84
2023/04/29 02:09:35;;;;;;;17.47;14.20;;;10.80;99.90;;;;;;5075204;28;20921;-85
2023/04/29 02:12:03;;;;;;;16.90;15.00;;;10.80;99.90;;;;;;5064407;28;20553;-85
2023/04/29 02:14:30;;;;;;;26.63;16.90;;;10.70;99.90;;;;;;5062412;28;20446;-85
2023/04/29 02:16:57;;;;;;;17.60;14.90;;;10.70;99.90;;;;;;5064337;28;20551;-85
2023/04/29 02:19:24;;;;;;;22.40;15.60;;;10.80;99.90;;;;;;5062221;28;20580;-84
2023/04/29 02:21:51;;;;;;;17.53;15.70;;;10.80;99.90;;;;;;5061931;28;20446;-85
2023/04/29 02:24:17;;;;;;;17.47;15.30;;;10.80;99.90;;;;;;5060908;28;20446;-85
2023/04/29 02:26:44;;;;;;;18.40;15.40;;;10.80;99.90;;;;;;5064794;28;20522;-85
2023/04/29 02:29:12;;;;;;;17.37;15.57;;;10.80;99.90;;;;;;5061653;28;20462;-84
2023/04/29 02:31:39;;;;;;;17.67;15.70;;;10.80;99.90;;;;;;5069294;28;20512;-84
2023/04/29 02:34:08;;;;;;;18.40;15.17;;;10.80;99.90;;;;;;5067594;28;20421;-85
2023/04/29 02:36:34;;;;;;;19.77;16.43;;;10.70;99.90;;;;;;5067094;28;20513;-85
2023/04/29 02:39:01;;;;;;;18.70;15.27;;;10.80;99.90;;;;;;5067960;28;20474;-85
2023/04/29 02:41:28;;;;;;;21.07;16.13;;;;;;;;;;5067867;28;20473;-83
2023/04/29 02:43:55;;;;;;;20.27;17.13;;;10.70;99.90;;;;;;5063619;28;20458;-85
2023/04/29 02:46:23;;;;;;;20.47;16.77;;;10.70;99.90;;;;;;5061383;28;20509;-85
2023/04/29 02:48:50;;;;;;;18.73;15.80;;;10.60;99.90;;;;;;5063805;28;20470;-85
2023/04/29 02:51:17;;;;;;;23.33;17.40;;;10.90;99.90;;;;;;5067448;28;20474;-85
2023/04/29 02:53:44;;;;;;;21.90;16.13;;;;;;;;;;5068232;28;20525;-84
2023/04/29 02:56:11;;;;;;;23.00;17.30;;;10.70;99.90;;;;;;5071405;28;20544;-83
2023/04/29 02:58:38;;;;;;;18.23;16.40;;;10.70;99.90;;;;;;5067177;28;20473;-84
2023/04/29 03:01:05;;;;;;;23.73;18.60;;;10.70;99.90;;;;;;5069371;28;20981;-86
2023/04/29 03:03:33;;;;;;;23.93;18.77;;;10.70;99.90;;;;;;5064986;28;20453;-84
2023/04/29 03:06:00;;;;;;;21.73;17.93;;;;;;;;;;5063055;28;20442;-84
2023/04/29 03:08:27;;;;;;;23.07;17.17;;;10.60;99.90;;;;;;5062357;28;20557;-84
2023/04/29 03:10:53;;;;;;;20.43;17.00;;;10.70;99.90;;;;;;5061745;28;20442;-85
2023/04/29 03:13:20;;;;;;;22.03;19.27;;;10.60;99.90;;;;;;5061270;28;20482;-84
2023/04/29 03:15:48;;;;;;;22.53;18.67;;;10.60;99.90;;;;;;5062310;28;21029;-85
2023/04/29 03:18:14;;;;;;;23.20;19.40;;;10.70;99.90;;;;;;5059652;28;20482;-85
2023/04/29 03:20:43;;;;;;;24.30;19.40;;;10.70;99.90;;;;;;5059986;28;20461;-86
2023/04/29 03:23:09;;;;;;;20.87;18.73;;;10.70;99.90;;;;;;5058787;28;20883;-85
2023/04/29 03:25:36;;;;;;;22.93;20.40;;;10.70;99.90;;;;;;5060103;28;20477;-86
2023/04/29 03:28:03;;;;;;;22.60;19.40;;;;;;;;;;5059878;28;20470;-84
2023/04/29 03:30:30;;;;;;;28.37;21.03;;;10.70;99.90;;;;;;5058617;28;20456;-84
2023/04/29 03:32:57;;;;;;;30.30;22.10;;;;;;;;;;5059373;28;20472;-85
2023/04/29 03:35:24;;;;;;;25.80;21.50;;;10.70;99.90;;;;;;5058896;28;20450;-85
2023/04/29 03:37:52;;;;;;;24.47;20.33;;;10.70;99.90;;;;;;5058770;28;20489;-86
2023/04/29 03:40:19;;;;;;;25.37;21.90;;;;;;;;;;5058965;28;20537;-85
2023/04/29 03:42:46;;;;;;;29.53;22.20;;;10.80;99.90;;;;;;5059333;28;20624;-85
2023/04/29 03:45:16;;;;;;;28.23;22.17;;;;;;;;;;5062619;28;20454;-87
2023/04/29 03:47:49;;;;;;;28.93;23.70;;;;;;;;;;5066228;28;20496;-88
2023/04/29 03:50:17;;;;;;;29.63;23.47;;;;;;;;;;5058340;28;20450;-89
2023/04/29 03:52:51;;;;;;;29.10;22.77;;;;;;;;;;5058027;28;20430;-87
2023/04/29 03:55:25;;;;;;;31.70;23.07;;;;;;;;;;5060237;28;20449;-88
2023/04/29 03:57:52;;;;;;;27.77;22.27;;;;;;;;;;5057305;28;20517;-88
2023/04/29 04:00:19;;;;;;;27.20;21.90;;;;;;;;;;5057701;28;20498;-88
2023/04/29 04:02:46;;;;;;;29.47;22.13;;;;;;;;;;5058808;28;20540;-88
2023/04/29 04:05:14;;;;;;;27.70;23.20;;;;;;;;;;5061723;28;20461;-88
2023/04/29 04:07:41;;;;;;;27.80;22.30;;;;;;;;;;5055708;28;20448;-88
2023/04/29 04:10:08;;;;;;;28.73;23.63;;;;;;;;;;5057993;28;20477;-88
2023/04/29 04:12:40;;;;;;;27.50;22.43;;;;;;;;;;5054817;28;20420;-88
2023/04/29 04:15:07;;;;;;;31.80;23.80;;;10.90;99.90;;;;;;5054631;28;21006;-88
2023/04/29 04:17:35;;;;;;;34.93;24.13;;;;;;;;;;5059251;28;20562;-89
2023/04/29 04:20:08;;;;;;;29.60;25.70;;;;;;;;;;5076596;28;20425;-89
2023/04/29 04:22:36;;;;;;;32.53;25.20;;;;;;;;;;5064754;28;20455;-88
2023/04/29 04:25:05;;;;;;;31.93;25.40;;;;;;;;;;5060560;28;20481;-88
2023/04/29 04:27:41;;;;;;;32.80;25.60;;;11.10;99.90;;;;;;5060605;28;20450;-89
2023/04/29 04:30:09;;;;;;;33.23;25.73;;;;;;;;;;5055383;28;20428;-88
2023/04/29 04:32:39;;;;;;;33.77;25.30;;;;;;;;;;5055974;28;20446;-88
2023/04/29 04:35:07;;;;;;;38.37;27.37;;;;;;;;;;5056026;28;20431;-89
2023/04/29 04:37:34;;;;;;;32.63;25.27;;;11.40;99.90;;;;;;5055691;28;20461;-88
2023/04/29 04:40:03;;;;;;;35.47;25.03;;;;;;;;;;5055730;28;20484;-89
2023/04/29 04:42:32;;;;;;;35.67;27.47;;;11.20;99.90;;;;;;5055480;28;20473;-89
2023/04/29 04:45:01;;;;;;;31.97;25.30;;;;;;;;;;5055472;28;20489;-88
2023/04/29 04:47:33;;;;;;;38.60;27.70;;;;;;;;;;5054577;28;20438;-89
2023/04/29 04:50:00;;;;;;;37.73;26.03;;;;;;;;;;5055515;28;20450;-89
2023/04/29 04:52:30;;;;;;;35.17;25.50;;;;;;;;;;5054757;28;20455;-89
2023/04/29 04:54:57;;;;;;;35.50;26.17;;;;;;;;;;5060104;28;20481;-89
2023/04/29 04:57:25;;;;;;;37.17;25.90;;;;;;;;;;5057730;28;20470;-88
2023/04/29 04:59:52;;;;;;;37.70;27.73;;;;;;;;;;5057287;28;20466;-88
2023/04/29 05:02:28;;;;;;;40.93;28.37;;;;;;;;;;5058803;28;20425;-89
2023/04/29 05:04:55;;;;;;;39.63;28.60;;;;;;;;;;5058554;28;20401;-88
2023/04/29 05:07:23;;;;;;;39.47;28.30;;;;;;;;;;5058046;28;20466;-88
2023/04/29 05:09:50;;;;;;;39.90;26.73;;;;;;;;;;5069523;28;20949;-89
2023/04/29 05:12:17;;;;;;;40.70;27.97;;;;;;;;;;5078122;28;20457;-88
2023/04/29 05:14:44;;;;;;;38.83;27.03;;;;;;;;;;5069038;28;20533;-89
2023/04/29 05:17:12;;;;;;;38.00;28.90;;;;;;;;;;5056665;28;20481;-89
2023/04/29 05:19:40;;;;;;;42.90;29.80;;;;;;;;;;5056791;28;20887;-89
2023/04/29 05:22:08;;;;;;;40.63;29.57;;;;;;;;;;5056750;28;20872;-88
2023/04/29 05:24:36;;;;;;;43.70;29.60;;;;;;;;;;5056165;28;20474;-89
2023/04/29 05:27:04;;;;;;;41.63;29.23;;;;;;;;;;5056371;28;20816;-88
2023/04/29 05:29:31;;;;;;;49.00;30.30;;;;;;;;;;5056016;28;20454;-89
2023/04/29 05:31:58;;;;;;;43.27;30.50;;;;;;;;;;5075172;28;20454;-88
2023/04/29 05:34:26;;;;;;;45.07;29.80;;;;;;;;;;5072242;28;20474;-88
2023/04/29 05:36:54;;;;;;;47.53;30.20;;;;;;;;;;5062212;28;20493;-88
2023/04/29 05:39:22;;;;;;;50.20;30.63;;;;;;;;;;5059372;28;20957;-89
2023/04/29 05:41:49;;;;;;;45.53;29.30;;;;;;;;;;5060097;28;20964;-89
2023/04/29 05:44:16;;;;;;;48.40;32.27;;;;;;;;;;5060211;28;20446;-88
2023/04/29 05:46:47;;;;;;;47.70;30.77;;;11.40;99.90;;;;;;5057977;28;20529;-89
2023/04/29 05:49:16;;;;;;;42.93;30.37;;;;;;;;;;5058779;28;20872;-89
2023/04/29 05:51:46;;;;;;;48.07;31.77;;;;;;;;;;5060176;28;20537;-88
2023/04/29 05:54:14;;;;;;;47.97;29.37;;;;;;;;;;5074103;28;20454;-88
2023/04/29 05:56:42;;;;;;;49.40;31.80;;;;;;;;;;5079821;28;20537;-88
2023/04/29 05:59:09;;;;;;;48.63;30.13;;;;;;;;;;5079702;28;20497;-88
2023/04/29 06:01:37;;;;;;;48.47;30.40;;;;;;;;;;5076508;28;20445;-87
2023/04/29 06:04:05;;;;;;;51.87;30.77;;;;;;;;;;5060267;28;20458;-88
2023/04/29 06:06:33;;;;;;;50.37;32.33;;;;;;;;;;5058887;28;20439;-88
2023/04/29 06:09:03;;;;;;;48.03;31.07;;;;;;;;;;5062047;28;20478;-87
2023/04/29 06:11:36;;;;;;;48.63;31.70;;;;;;;;;;5073130;28;20426;-87
2023/04/29 06:14:04;;;;;;;53.10;30.63;;;;;;;;;;5071248;28;20533;-88
2023/04/29 06:16:32;;;;;;;50.23;31.70;;;;;;;;;;5065375;28;20528;-88
2023/04/29 06:18:59;;;;;;;51.20;30.73;;;;;;;;;;5060222;28;20466;-88
2023/04/29 06:21:27;;;;;;;48.40;32.57;;;;;;;;;;5064183;28;20447;-88
2023/04/29 06:24:11;;;;;;;48.47;31.60;;;11.70;99.90;;;;;;5065500;28;20936;-89
2023/04/29 06:26:58;;;;;;;54.37;31.07;;;11.70;99.90;;;;;;5068349;28;20454;-89
2023/04/29 06:29:29;;;;;;;43.60;29.30;;;;;;;;;;5061489;28;20831;-89
2023/04/29 06:34:39;;;;;;;46.23;30.80;;;;;;;;;;5072746;28;20447;-88
2023/04/29 06:37:06;;;;;;;43.87;29.10;;;;;;;;;;5070316;28;20545;-88
2023/04/29 06:39:33;;;;;;;46.60;29.10;;;;;;;;;;5062792;28;20481;-89
2023/04/29 06:42:02;;;;;;;43.70;29.43;;;;;;;;;;5059893;28;20537;-88
2023/04/29 06:44:33;;;;;;;40.33;27.20;;;;;;;;;;5059150;28;20987;-88
2023/04/29 06:47:00;;;;;;;46.00;26.40;;;;;;;;;;5058972;28;20431;-88
2023/04/29 06:49:27;;;;;;;46.60;26.47;;;;;;;;;;5059133;28;20502;-88
2023/04/29 06:51:55;;;;;;;38.30;23.00;;;;;;;;;;5059241;28;20828;-88
2023/04/29 06:54:22;;;;;;;38.47;23.40;;;;;;;;;;5058147;28;20450;-88
2023/04/29 06:56:50;;;;;;;34.07;21.27;;;;;;;;;;5057854;28;20456;-88
2023/04/29 06:59:18;;;;;;;35.53;23.07;;;;;;;;;;5058640;28;20900;-88
2023/04/29 07:01:45;;;;;;;30.40;18.13;;;;;;;;;;5072294;28;20510;-88
2023/04/29 07:04:15;;;;;;;26.50;18.10;;;;;;;;;;5059659;28;20537;-89
2023/04/29 07:06:47;;;;;;;31.10;19.50;;;11.40;99.90;;;;;;5059070;28;20500;-89
2023/04/29 07:09:15;;;;;;;30.53;19.07;;;;;;;;;;5059956;28;20464;-89
2023/04/29 07:11:42;;;;;;;28.23;19.00;;;;;;;;;;5061753;28;20880;-89
2023/04/29 07:14:12;;;;;;;27.00;16.90;;;;;;;;;;5061714;28;20469;-90
2023/04/29 07:16:44;;;;;;;22.93;16.73;;;;;;;;;;5063044;28;20438;-90
2023/04/29 07:19:10;;;;;;;29.70;18.27;;;12.10;99.90;;;;;;5082539;22;20506;-82
2023/04/29 07:21:37;;;;;;;24.40;17.07;;;12.10;99.90;;;;;;5071492;28;20955;-82
2023/04/29 07:24:05;;;;;;;22.43;16.57;;;12.10;99.90;;;;;;5063477;28;20437;-79
2023/04/29 07:26:32;;;;;;;23.70;18.27;;;12.10;99.90;;;;;;5061232;28;20446;-80
2023/04/29 07:28:59;;;;;;;30.67;18.67;;;12.00;99.90;;;;;;5058294;28;20533;-78
2023/04/29 07:31:26;;;;;;;24.83;16.13;;;11.90;99.90;;;;;;5058189;28;20510;-78
2023/04/29 07:33:54;;;;;;;26.53;17.33;;;11.90;99.90;;;;;;5056630;28;20473;-80
2023/04/29 07:36:21;;;;;;;26.20;17.90;;;12.00;99.90;;;;;;5056715;28;20446;-80
2023/04/29 07:38:48;;;;;;;33.00;20.13;;;11.80;99.90;;;;;;5061186;28;20468;-86
2023/04/29 07:41:14;;;;;;;28.20;19.87;;;11.80;99.90;;;;;;5069211;28;20442;-82
2023/04/29 07:43:41;;;;;;;32.30;20.30;;;12.00;99.90;;;;;;5076705;28;20488;-84
2023/04/29 07:46:08;;;;;;;28.60;20.10;;;11.70;99.90;;;;;;5076020;28;20442;-83
2023/04/29 07:48:38;;;;;;;33.50;20.77;;;11.60;99.90;;;;;;5075089;28;20522;-83
2023/04/29 07:51:07;;;;;;;29.23;20.77;;;11.70;99.90;;;;;;5074709;28;20448;-84
2023/04/29 07:53:34;;;;;;;29.20;20.10;;;11.60;99.90;;;;;;5059273;28;20465;-84
2023/04/29 07:56:06;;;;;;;32.30;20.50;;;11.50;99.90;;;;;;5058789;28;20504;-84
2023/04/29 07:58:33;;;;;;;29.63;21.20;;;;;;;;;;5059237;28;20464;-84
2023/04/29 08:01:07;;;;;;;28.57;23.13;;;11.50;99.90;;;;;;5060070;28;20478;-84
2023/04/29 08:03:34;;;;;;;30.10;23.10;;;12.80;99.90;;;;;;5076212;28;20450;-82
2023/04/29 08:06:02;;;;;;;28.03;23.17;;;11.60;99.90;;;;;;5074855;28;20453;-83
2023/04/29 08:08:30;;;;;;;31.47;22.07;;;;;;;;;;5064203;28;20526;-84
2023/04/29 08:10:57;;;;;;;25.50;20.77;;;11.40;99.90;;;;;;5060199;28;20973;-85
2023/04/29 08:13:24;;;;;;;32.83;21.30;;;11.40;99.90;;;;;;5058626;28;20446;-85
2023/04/29 08:15:52;;;;;;;26.90;20.80;;;11.50;99.90;;;;;;5057711;28;20450;-84
2023/04/29 08:18:20;;;;;;;26.73;19.00;;;11.40;99.90;;;;;;5059964;28;20559;-83
2023/04/29 08:20:48;;;;;;;22.20;18.20;;;11.20;99.90;;;;;;5058821;28;20435;-83
2023/04/29 08:23:15;;;;;;;23.00;17.83;;;11.20;99.90;;;;;;5059378;28;20446;-84
2023/04/29 08:25:44;;;;;;;22.77;19.50;;;11.30;99.90;;;;;;5059265;28;20454;-84
2023/04/29 08:28:11;;;;;;;20.53;17.57;;;11.30;99.90;;;;;;5060070;28;20466;-84
2023/04/29 08:30:40;;;;;;;19.20;15.23;;;11.20;99.90;;;;;;5060786;28;20519;-83
2023/04/29 08:33:07;;;;;;;29.40;18.97;;;11.20;99.90;;;;;;5060639;28;20450;-84
2023/04/29 08:35:36;;;;;;;20.60;17.80;;;11.30;99.90;;;;;;5061636;28;20450;-84
2023/04/29 08:38:05;;;;;;;25.97;18.47;;;10.80;99.90;;;;;;5061248;28;20453;-83
2023/04/29 08:40:33;;;;;;;18.73;16.30;;;11.10;99.90;;;;;;5064313;28;20492;-84
2023/04/29 08:43:03;;;;;;;19.27;15.40;;;11.10;99.90;;;;;;5064174;28;20446;-83
2023/04/29 08:45:31;;;;;;;21.20;16.47;;;11.10;99.90;;;;;;5067854;28;20413;-84
2023/04/29 08:47:58;;;;;;;22.80;16.47;;;10.90;99.90;;;;;;5061271;28;20450;-84
2023/04/29 08:50:28;;;;;;;18.70;13.63;;;10.90;99.90;;;;;;5059906;28;20967;-84
2023/04/29 08:52:55;;;;;;;20.57;16.50;;;10.70;99.90;;;;;;5063989;28;20445;-85
2023/04/29 08:55:22;;;;;;;18.07;15.03;;;10.90;99.90;;;;;;5064464;28;20957;-84
2023/04/29 08:57:50;;;;;;;18.40;13.80;;;12.80;99.90;;;;;;5070915;28;20505;-84
2023/04/29 09:00:19;;;;;;;21.90;16.07;;;11.10;99.90;;;;;;5068000;28;20505;-84
2023/04/29 09:02:49;;;;;;;21.17;17.23;;;10.90;99.90;;;;;;5067022;28;20438;-84
2023/04/29 09:05:16;;;;;;;22.90;16.77;;;11.00;99.90;;;;;;5068692;28;20437;-84
2023/04/29 09:07:44;;;;;;;21.80;17.07;;;11.00;99.90;;;;;;5071201;28;20409;-85
2023/04/29 09:10:12;;;;;;;24.43;18.73;;;11.20;99.90;;;;;;5070766;28;20493;-83
2023/04/29 09:12:39;;;;;;;19.90;15.80;;;11.00;99.90;;;;;;5070102;28;20902;-83
2023/04/29 09:15:07;;;;;;;20.67;17.10;;;11.30;99.90;;;;;;5075280;28;20425;-82
2023/04/29 09:17:44;;;;;;;24.27;18.70;;;11.00;99.90;;;;;;5082101;28;20405;-81
2023/04/29 09:20:28;;;;;;;23.43;16.97;;;11.00;99.90;;;;;;5071254;28;20580;-83
2023/04/29 09:22:56;;;;;;;25.20;18.87;;;11.10;99.90;;;;;;5067880;28;20454;-84
2023/04/29 09:25:24;;;;;;;22.03;17.87;;;11.10;99.90;;;;;;5072195;28;20425;-83
2023/04/29 09:27:51;;;;;;;22.97;18.63;;;11.10;99.90;;;;;;5070804;28;20469;-84
2023/04/29 09:30:18;;;;;;;23.47;15.90;;;11.20;99.90;;;;;;5072290;28;20476;-83
2023/04/29 09:33:03;;;;;;;22.23;16.30;;;11.20;99.90;;;;;;5076620;28;20442;-84
2023/04/29 09:35:30;;;;;;;23.53;16.97;;;11.40;99.90;;;;;;5076361;28;20436;-83
2023/04/29 09:38:09;;;;;;;20.37;17.10;;;10.90;99.90;;;;;;5069508;28;20477;-83
2023/04/29 09:40:36;;;;;;;26.43;18.70;;;11.20;99.90;;;;;;5062360;28;20438;-84
2023/04/29 09:43:03;;;;;;;23.60;16.77;;;11.20;99.90;;;;;;5063136;28;20456;-83
2023/04/29 09:45:38;;;;;;;30.13;20.57;;;11.20;99.90;;;;;;5067588;28;20588;-83
2023/04/29 09:48:07;;;;;;;24.97;18.60;;;11.00;99.90;;;;;;5074019;28;20442;-84
2023/04/29 09:50:35;;;;;;;28.67;19.57;;;11.10;99.90;;;;;;5077491;28;20506;-84
2023/04/29 09:53:03;;;;;;;31.30;21.97;;;10.80;99.90;;;;;;5074367;28;20470;-84
2023/04/29 09:55:30;;;;;;;29.30;20.57;;;11.10;99.90;;;;;;5068239;28;20450;-84
2023/04/29 09:57:59;;;;;;;35.00;23.67;;;;;;;;;;5067642;28;20482;-84
2023/04/29 10:00:30;;;;;;;34.40;24.43;;;11.10;99.90;;;;;;5067580;28;20446;-85
2023/04/29 10:02:59;;;;;;;34.53;21.93;;;11.00;99.90;;;;;;5068539;28;20449;-83
2023/04/29 10:05:28;;;;;;;40.80;27.33;;;10.60;99.90;;;;;;5080178;28;20430;-83
2023/04/29 10:07:56;;;;;;;38.13;25.23;;;10.90;99.90;;;;;;5079483;28;20476;-83
2023/04/29 10:10:24;;;;;;;39.83;25.97;;;10.90;99.90;;;;;;5078596;28;20439;-83
2023/04/29 10:12:53;;;;;;;40.13;27.40;;;11.00;99.90;;;;;;5068266;28;20771;-84
2023/04/29 10:15:26;;;;;;;49.70;28.43;;;10.80;99.90;;;;;;5065773;28;20533;-84
2023/04/29 10:18:02;;;;;;;50.10;32.13;;;10.80;99.90;;;;;;5065299;28;20431;-84
2023/04/29 10:20:31;;;;;;;49.17;31.03;;;10.60;99.90;;;;;;5078822;28;20472;-83
2023/04/29 10:22:59;;;;;;;53.27;34.07;;;10.60;99.90;;;;;;5078628;28;20435;-83
2023/04/29 10:25:27;;;;;;;56.57;36.30;;;10.60;99.90;;;;;;5079054;28;20438;-84
2023/04/29 10:27:55;;;;;;;56.60;33.03;;;10.60;99.90;;;;;;5079480;28;20460;-84
2023/04/29 10:30:23;;;;;;;56.57;35.63;;;10.60;99.90;;;;;;5069380;28;20525;-84
2023/04/29 10:32:51;;;;;;;57.03;34.03;;;10.70;99.90;;;;;;5066291;28;20481;-84
2023/04/29 10:35:19;;;;;;;62.50;37.27;;;10.70;99.90;;;;;;5066526;28;20474;-84
2023/04/29 10:37:48;;;;;;;62.10;38.97;;;10.80;99.90;;;;;;5065337;28;20860;-84
2023/04/29 10:40:19;;;;;;;61.80;37.47;;;10.80;99.90;;;;;;5065747;28;20533;-85
2023/04/29 10:42:48;;;;;;;64.87;38.97;;;10.80;99.90;;;;;;5064388;28;20445;-84
2023/04/29 10:45:19;;;;;;;64.27;38.80;;;10.80;99.90;;;;;;5076343;28;20449;-83
2023/04/29 10:48:14;;;;;;;65.90;38.03;;;10.90;99.90;;;;;;5064168;28;20509;-83
2023/04/29 10:51:03;;;;;;;61.03;39.23;;;11.00;99.90;;;;;;5065392;28;20426;-86
2023/04/29 10:53:31;;;;;;;54.20;34.80;;;11.10;99.90;;;;;;5062783;28;20446;-83
2023/04/29 10:56:09;;;;;;;50.13;35.50;;;10.90;50.10;;;;;;5064216;28;20430;-85
2023/04/29 10:58:40;;;;;;;45.70;33.30;;;11.00;20.00;;;;;;5061193;28;20490;-85
2023/04/29 11:01:09;;;;;;;44.03;30.20;;;11.10;43.40;;;;;;5062629;28;20440;-83
2023/04/29 11:03:57;;;;;;;46.27;31.57;;;11.10;1.00;;;;;;5064297;28;20443;-84
2023/04/29 11:06:25;;;;;;;42.57;32.17;;;11.10;1.00;;;;;;5061620;28;20471;-84
2023/04/29 11:09:04;;;;;;;44.77;29.73;;;11.10;1.00;;;;;;5061342;28;20977;-84
2023/04/29 11:11:46;;;;;;;45.80;31.40;;;11.20;1.00;;;;;;5074013;28;20457;-83
2023/04/29 11:14:14;;;;;;;43.40;30.57;;;11.20;1.00;;;;;;5079205;28;20454;-83
2023/04/29 11:16:48;;;;;;;40.03;29.20;;;11.30;1.00;;;;;;5079039;28;20438;-83
2023/04/29 11:19:17;;;;;;;41.20;29.53;;;10.80;1.00;;;;;;5078941;28;20481;-83
2023/04/29 11:21:45;;;;;;;37.67;27.60;;;11.60;1.00;;;;;;5072994;28;20442;-84
2023/04/29 11:24:16;;;;;;;36.57;28.10;;;11.70;99.90;;;;;;5063521;28;20450;-84
2023/04/29 11:26:45;;;;;;;36.60;26.60;;;11.60;99.90;;;;;;5061619;28;20426;-84
2023/04/29 11:29:11;;;;;;;36.73;27.23;;;11.70;99.90;;;;;;5061330;28;20458;-84
2023/04/29 11:31:39;;;;;;;33.10;25.90;;;11.90;99.90;;;;;;5064359;28;20465;-84
2023/04/29 11:34:07;;;;;;;32.70;24.97;;;11.70;3.80;;;;;;5075306;28;20758;-83
2023/04/29 11:36:34;;;;;;;32.40;26.47;;;11.50;99.90;;;;;;5074240;28;20514;-84
2023/04/29 11:39:02;;;;;;;34.37;26.47;;;11.80;99.90;;;;;;5067063;28;20494;-85
2023/04/29 11:41:31;;;;;;;36.17;24.57;;;11.80;99.90;;;;;;5070851;28;20442;-84
2023/04/29 11:43:59;;;;;;;32.97;25.80;;;11.90;51.20;;;;;;5074886;28;20484;-84
2023/04/29 11:46:27;;;;;;;36.20;24.33;;;12.00;1.00;;;;;;5067015;28;20489;-84
2023/04/29 11:48:54;;;;;;;28.43;25.23;;;12.40;1.00;;;;;;5044302;28;20822;-84
2023/04/29 11:51:21;;;;;;;24.87;21.37;;;12.70;1.00;;;;;;5063974;28;20513;-84
2023/04/29 11:53:48;;;;;;;25.10;22.30;;;12.80;99.90;;;;;;5062240;28;20446;-84
2023/04/29 11:56:15;;;;;;;26.10;21.40;;;13.00;99.90;;;;;;5062581;28;20465;-84
2023/04/29 11:58:44;;;;;;;29.67;20.33;;;12.90;99.90;;;;;;5062604;28;20486;-84
2023/04/29 12:01:11;;;;;;;23.27;20.23;;;13.00;1.00;;;;;;5066853;28;20864;-84
2023/04/29 12:03:39;;;;;;;25.87;18.80;;;12.70;1.00;;;;;;5061735;28;20453;-84
2023/04/29 12:06:06;;;;;;;24.43;20.07;;;12.80;99.90;;;;;;5061176;28;20468;-85
2023/04/29 12:08:33;;;;;;;22.80;19.87;;;13.00;99.90;;;;;;5061651;28;20462;-84
2023/04/29 12:11:01;;;;;;;23.20;19.17;;;13.10;1.00;;;;;;5061212;28;20446;-84
2023/04/29 12:13:29;;;;;;;20.30;18.27;;;13.30;99.90;;;;;;5062960;28;20453;-84
2023/04/29 12:15:58;;;;;;;22.57;18.47;;;13.30;99.90;;;;;;5062588;28;20454;-84
2023/04/29 12:18:26;;;;;;;18.80;16.87;;;13.40;99.90;;;;;;5072337;28;20473;-83
2023/04/29 12:20:57;;;;;;;19.70;17.63;;;13.20;1.00;;;;;;5078569;28;20415;-83
2023/04/29 12:23:26;;;;;;;23.00;18.77;;;12.90;1.00;;;;;;5063478;28;20405;-84
2023/04/29 12:25:54;;;;;;;20.40;18.20;;;13.00;1.00;;;;;;5062636;28;20442;-84
2023/04/29 12:28:22;;;;;;;19.40;17.40;;;12.80;1.00;;;;;;5061380;28;20462;-84
2023/04/29 12:30:52;;;;;;;20.10;18.00;;;12.80;99.90;;;;;;5061765;28;20446;-84
2023/04/29 12:33:23;;;;;;;19.73;17.10;;;12.70;1.00;;;;;;5062973;28;20871;-85
2023/04/29 12:35:50;;;;;;;25.47;18.93;;;12.60;99.90;;;;;;5065070;28;20429;-84
2023/04/29 12:38:21;;;;;;;20.63;18.20;;;12.80;99.90;;;;;;5069229;28;21050;-84
2023/04/29 12:40:49;;;;;;;19.73;17.67;;;12.50;8.70;;;;;;5070841;28;20463;-84
2023/04/29 12:43:17;;;;;;;25.93;21.30;;;12.50;1.00;;;;;;5071515;28;20417;-84
2023/04/29 12:45:44;;;;;;;23.37;17.30;;;12.50;1.00;;;;;;5076602;28;20446;-83
2023/04/29 12:48:12;;;;;;;20.37;17.80;;;12.90;99.90;;;;;;5071996;28;20530;-84
2023/04/29 12:50:40;;;;;;;19.53;16.73;;;12.80;1.00;;;;;;5072679;28;20441;-84
2023/04/29 12:53:09;;;;;;;20.40;17.27;;;13.20;1.00;;;;;;5071870;28;20462;-84
2023/04/29 12:55:37;;;;;;;20.10;16.20;;;13.20;1.00;;;;;;5070503;28;20496;-85
2023/04/29 12:58:06;;;;;;;18.27;16.03;;;13.60;1.00;;;;;;5067779;28;20480;-84
2023/04/29 13:00:33;;;;;;;18.33;16.20;;;13.50;99.90;;;;;;5067295;28;20520;-83
2023/04/29 13:03:00;;;;;;;18.87;14.93;;;13.70;99.90;;;;;;5068978;28;20794;-83
2023/04/29 13:05:27;;;;;;;18.37;15.30;;;13.90;1.00;;;;;;5070534;28;20477;-82
2023/04/29 13:07:55;;;;;;;17.93;13.70;;;14.00;93.00;;;;;;5069957;28;20484;-83